createdAt,value
2022-09-22T00:02:36.305Z,9.01
2022-09-22T00:05:23.552Z,9.38
2022-09-22T00:08:09.594Z,10.03
2022-09-22T00:11:05.032Z,8.51
2022-09-22T00:13:54.972Z,7.75
2022-09-22T00:16:42.486Z,7.94
2022-09-22T00:19:32.988Z,8.05
2022-09-22T00:22:19.409Z,9.18
2022-09-22T00:25:06.876Z,9.89
2022-09-22T00:27:54.445Z,10.14
2022-09-22T00:30:42.417Z,10.30
2022-09-22T00:33:28.456Z,10.37
2022-09-22T00:36:15.934Z,10.42
2022-09-22T00:39:02.733Z,10.31
2022-09-22T00:41:51.067Z,10.54
2022-09-22T00:44:44.613Z,10.46
2022-09-22T00:47:34.940Z,10.66
2022-09-22T00:50:24.348Z,10.58
2022-09-22T00:53:13.261Z,10.69
2022-09-22T00:56:22.297Z,10.55
2022-09-22T00:59:12.703Z,10.48
2022-09-22T01:01:59.060Z,10.70
2022-09-22T01:04:46.084Z,10.78
2022-09-22T01:07:32.396Z,10.50
2022-09-22T01:10:18.764Z,10.43
2022-09-22T01:13:45.135Z,9.73
2022-09-22T01:16:43.394Z,8.58
2022-09-22T01:19:45.189Z,8.94
2022-09-22T01:22:46.894Z,8.87
2022-09-22T01:26:00.749Z,9.71
2022-09-22T01:29:11.824Z,9.69
2022-09-22T01:32:01.354Z,9.34
2022-09-22T01:35:06.192Z,8.85
2022-09-22T01:38:03.546Z,8.30
2022-09-22T01:41:04.334Z,8.93
2022-09-22T01:43:55.288Z,8.48
2022-09-22T01:46:50.077Z,8.65
2022-09-22T01:49:40.592Z,7.02
2022-09-22T01:52:32.567Z,8.25
2022-09-22T01:55:26.772Z,8.40
2022-09-22T01:58:19.814Z,8.90
2022-09-22T02:01:14.931Z,8.22
2022-09-22T02:04:13.504Z,7.87
2022-09-22T02:07:11.046Z,7.38
2022-09-22T02:09:59.156Z,7.47
2022-09-22T02:12:45.646Z,7.96
2022-09-22T02:15:50.520Z,7.56
2022-09-22T02:18:42.916Z,6.98
2022-09-22T02:21:29.506Z,7.08
2022-09-22T02:24:31.115Z,7.19
2022-09-22T02:27:27.152Z,7.13
2022-09-22T02:30:14.030Z,7.19
2022-09-22T02:33:01.065Z,8.37
2022-09-22T02:35:48.728Z,7.88
2022-09-22T02:38:47.985Z,8.88
2022-09-22T02:41:44.854Z,9.30
2022-09-22T02:44:36.579Z,9.66
2022-09-22T02:47:34.407Z,9.47
2022-09-22T02:50:23.452Z,8.77
2022-09-22T02:53:16.955Z,8.44
2022-09-22T02:56:03.733Z,8.03
2022-09-22T02:58:49.977Z,9.42
2022-09-22T03:01:36.395Z,9.72
2022-09-22T03:04:22.281Z,9.94
2022-09-22T03:07:08.658Z,10.02
2022-09-22T03:09:54.413Z,9.99
2022-09-22T03:13:09.190Z,10.02
2022-09-22T03:15:49.924Z,9.96
2022-09-22T03:18:36.137Z,9.68
2022-09-22T03:21:21.882Z,8.81
2022-09-22T03:24:08.333Z,8.55
2022-09-22T03:26:54.278Z,7.80
2022-09-22T03:29:40.479Z,7.05
2022-09-22T03:32:26.560Z,6.57
2022-09-22T03:35:12.791Z,6.46
2022-09-22T03:37:58.603Z,6.94
2022-09-22T03:40:52.441Z,7.12
2022-09-22T03:43:38.320Z,7.19
2022-09-22T03:46:25.117Z,7.44
2022-09-22T03:49:11.612Z,8.37
2022-09-22T03:51:58.095Z,8.58
2022-09-22T03:54:43.957Z,7.98
2022-09-22T03:57:30.281Z,7.39
2022-09-22T04:00:16.950Z,8.26
2022-09-22T04:03:03.379Z,8.68
2022-09-22T04:05:49.931Z,8.32
2022-09-22T04:08:36.286Z,7.70
2022-09-22T04:11:23.562Z,7.74
2022-09-22T04:14:09.743Z,8.00
2022-09-22T04:16:56.748Z,7.97
2022-09-22T04:19:42.819Z,8.02
2022-09-22T04:22:29.034Z,7.71
2022-09-22T04:25:15.192Z,8.24
2022-09-22T04:28:04.885Z,6.97
2022-09-22T04:30:51.896Z,7.42
2022-09-22T04:33:37.812Z,7.74
2022-09-22T04:36:24.178Z,7.64
2022-09-22T04:39:10.090Z,7.91
2022-09-22T04:41:56.097Z,6.81
2022-09-22T04:44:41.944Z,6.62
2022-09-22T04:47:31.420Z,6.21
2022-09-22T04:50:17.712Z,6.42
2022-09-22T04:53:04.077Z,7.01
2022-09-22T04:55:50.213Z,7.06
2022-09-22T04:58:36.204Z,7.45
2022-09-22T05:01:22.079Z,8.15
2022-09-22T05:04:09.348Z,7.95
2022-09-22T05:06:55.329Z,8.56
2022-09-22T05:09:41.418Z,7.59
2022-09-22T05:12:27.606Z,7.35
2022-09-22T05:15:14.203Z,7.39
2022-09-22T05:18:00.066Z,7.47
2022-09-22T05:20:46.537Z,6.40
2022-09-22T05:23:32.238Z,6.78
2022-09-22T05:26:19.356Z,7.08
2022-09-22T05:29:06.357Z,6.90
2022-09-22T05:31:52.492Z,6.66
2022-09-22T05:34:38.154Z,6.49
2022-09-22T05:37:24.222Z,7.55
2022-09-22T05:40:10.922Z,6.72
2022-09-22T05:42:57.403Z,6.85
2022-09-22T05:45:43.966Z,6.93
2022-09-22T05:48:31.412Z,7.17
2022-09-22T05:51:17.666Z,6.81
2022-09-22T05:54:04.205Z,6.94
2022-09-22T05:56:49.972Z,7.13
2022-09-22T05:59:36.039Z,7.38
2022-09-22T06:02:26.113Z,7.27
2022-09-22T06:05:16.205Z,7.87
2022-09-22T06:08:05.223Z,7.92
2022-09-22T06:10:52.784Z,7.96
2022-09-22T06:13:39.669Z,8.28
2022-09-22T06:16:26.007Z,7.93
2022-09-22T06:19:12.131Z,8.32
2022-09-22T06:21:58.574Z,8.33
2022-09-22T06:24:45.316Z,7.94
2022-09-22T06:27:31.924Z,8.02
2022-09-22T06:30:18.531Z,8.44
2022-09-22T06:33:04.911Z,8.18
2022-09-22T06:35:51.232Z,8.55
2022-09-22T06:38:37.566Z,9.02
2022-09-22T06:41:23.790Z,8.90
2022-09-22T06:44:12.671Z,8.71
2022-09-22T06:46:59.694Z,8.94
2022-09-22T06:49:46.702Z,9.12
2022-09-22T06:52:36.142Z,9.29
2022-09-22T06:55:23.780Z,9.44
2022-09-22T06:58:10.075Z,9.38
2022-09-22T07:00:59.222Z,9.99
2022-09-22T07:03:46.303Z,9.97
2022-09-22T07:06:33.316Z,9.82
2022-09-22T07:09:19.965Z,9.98
2022-09-22T07:12:06.407Z,10.47
2022-09-22T07:14:53.409Z,10.44
2022-09-22T07:17:40.057Z,10.76
2022-09-22T07:20:26.374Z,11.38
2022-09-22T07:23:19.054Z,10.68
2022-09-22T07:26:06.465Z,11.23
2022-09-22T07:28:53.969Z,10.99
2022-09-22T07:31:41.494Z,11.04
2022-09-22T07:34:27.683Z,10.60
2022-09-22T07:37:15.510Z,11.16
2022-09-22T07:40:03.495Z,11.11
2022-09-22T07:42:49.817Z,11.58
2022-09-22T07:45:36.268Z,11.41
2022-09-22T07:48:42.367Z,11.16
2022-09-22T07:51:28.971Z,11.37
2022-09-22T07:54:15.906Z,11.20
2022-09-22T07:57:11.101Z,11.31
2022-09-22T07:59:57.621Z,11.69
2022-09-22T08:02:44.659Z,11.67
2022-09-22T08:05:33.992Z,12.03
2022-09-22T08:08:20.806Z,12.28
2022-09-22T08:11:08.661Z,11.96
2022-09-22T08:13:55.333Z,12.53
2022-09-22T08:16:41.795Z,12.20
2022-09-22T08:19:33.874Z,12.89
2022-09-22T08:22:20.153Z,13.01
2022-09-22T08:25:07.404Z,12.63
2022-09-22T08:27:54.293Z,12.20
2022-09-22T08:30:45.216Z,12.68
2022-09-22T08:33:34.288Z,12.51
2022-09-22T08:36:20.793Z,12.90
2022-09-22T08:39:07.260Z,12.76
2022-09-22T08:42:07.297Z,13.31
2022-09-22T08:45:04.268Z,13.76
2022-09-22T08:48:18.548Z,13.32
2022-09-22T08:51:42.000Z,13.72
2022-09-22T08:54:28.505Z,13.77
2022-09-22T08:57:33.352Z,14.39
2022-09-22T09:00:19.403Z,14.21
2022-09-22T09:03:24.296Z,14.45
2022-09-22T09:06:16.197Z,15.01
2022-09-22T09:09:11.485Z,14.33
2022-09-22T09:11:58.188Z,14.59
2022-09-22T09:15:03.961Z,14.78
2022-09-22T09:17:49.819Z,14.66
2022-09-22T09:20:38.988Z,14.75
2022-09-22T09:26:40.006Z,15.59
2022-09-22T09:29:29.870Z,15.28
2022-09-22T09:32:21.753Z,15.64
2022-09-22T09:35:08.183Z,14.83
2022-09-22T09:37:55.664Z,15.39
2022-09-22T09:40:41.682Z,15.66
2022-09-22T09:43:28.271Z,14.66
2022-09-22T09:46:17.988Z,14.38
2022-09-22T09:49:05.669Z,14.76
2022-09-22T09:51:52.876Z,15.56
2022-09-22T09:54:40.743Z,15.26
2022-09-22T09:57:28.070Z,16.28
2022-09-22T10:00:31.817Z,16.76
2022-09-22T10:03:25.393Z,16.33
2022-09-22T10:06:11.780Z,16.06
2022-09-22T10:08:58.180Z,15.93
2022-09-22T10:11:43.966Z,15.92
2022-09-22T10:14:31.694Z,15.98
2022-09-22T10:17:21.942Z,16.02
2022-09-22T10:20:17.220Z,15.86
2022-09-22T10:23:22.684Z,14.42
2022-09-22T10:26:16.130Z,14.75
2022-09-22T10:29:20.966Z,15.45
2022-09-22T10:32:17.009Z,16.82
2022-09-22T10:35:29.945Z,16.32
2022-09-22T10:38:21.966Z,16.72
2022-09-22T10:41:12.437Z,18.16
2022-09-22T10:44:35.071Z,17.56
2022-09-22T10:47:27.356Z,18.51
2022-09-22T10:50:35.747Z,18.57
2022-09-22T10:53:31.220Z,19.04
2022-09-22T10:56:26.481Z,17.62
2022-09-22T10:59:15.427Z,17.95
2022-09-22T11:02:04.929Z,17.02
2022-09-22T11:04:53.340Z,17.18
2022-09-22T11:08:10.698Z,16.89
2022-09-22T11:11:18.485Z,17.63
2022-09-22T11:14:17.410Z,17.08
2022-09-22T11:17:06.110Z,17.24
2022-09-22T11:20:16.635Z,17.17
2022-09-22T11:23:08.777Z,17.19
2022-09-22T11:26:02.161Z,16.84
2022-09-22T11:29:07.644Z,16.25
2022-09-22T11:32:08.930Z,16.29
2022-09-22T11:35:00.871Z,16.07
2022-09-22T11:37:53.260Z,17.37
2022-09-22T11:40:51.459Z,16.27
2022-09-22T11:43:47.024Z,16.87
2022-09-22T11:46:45.008Z,17.35
2022-09-22T11:49:37.170Z,18.02
2022-09-22T11:52:43.757Z,16.94
2022-09-22T11:55:36.247Z,17.00
2022-09-22T11:58:22.744Z,16.75
2022-09-22T12:01:13.282Z,16.40
2022-09-22T12:04:15.590Z,16.87
2022-09-22T12:07:03.281Z,17.63
2022-09-22T12:09:56.626Z,17.79
2022-09-22T12:12:43.440Z,17.43
2022-09-22T12:15:37.918Z,18.51
2022-09-22T12:18:26.668Z,18.97
2022-09-22T12:21:22.638Z,18.64
2022-09-22T12:24:09.389Z,18.56
2022-09-22T12:26:55.279Z,18.06
2022-09-22T12:29:42.050Z,17.34
2022-09-22T12:32:36.345Z,17.61
2022-09-22T12:35:30.321Z,17.96
2022-09-22T12:38:19.821Z,18.73
2022-09-22T12:41:06.057Z,18.38
2022-09-22T12:43:52.225Z,18.55
2022-09-22T12:46:39.104Z,18.24
2022-09-22T12:49:25.551Z,17.35
2022-09-22T12:52:30.592Z,18.27
2022-09-22T12:55:19.983Z,18.47
2022-09-22T12:58:21.422Z,18.25
2022-09-22T13:01:26.634Z,18.20
2022-09-22T13:04:16.962Z,18.67
2022-09-22T13:07:03.533Z,18.73
2022-09-22T13:09:50.629Z,18.88
2022-09-22T13:12:36.823Z,18.54
2022-09-22T13:15:22.558Z,18.36
2022-09-22T13:18:27.265Z,18.10
2022-09-22T13:21:13.196Z,18.83
2022-09-22T13:24:02.261Z,18.69
2022-09-22T13:26:48.229Z,17.53
2022-09-22T13:29:34.779Z,17.82
2022-09-22T13:32:27.045Z,18.40
2022-09-22T13:35:27.076Z,17.82
2022-09-22T13:38:13.691Z,18.68
2022-09-22T13:41:03.249Z,19.19
2022-09-22T13:43:49.060Z,19.71
2022-09-22T13:46:37.580Z,20.02
2022-09-22T13:49:35.513Z,20.13
2022-09-22T13:52:22.351Z,20.00
2022-09-22T13:55:08.349Z,20.03
2022-09-22T13:57:55.505Z,20.50
2022-09-22T14:01:08.570Z,20.60
2022-09-22T14:03:49.529Z,20.25
2022-09-22T14:06:36.830Z,19.21
2022-09-22T14:09:23.508Z,20.43
2022-09-22T14:12:10.133Z,21.34
2022-09-22T14:14:56.240Z,21.56
2022-09-22T14:17:42.213Z,21.85
2022-09-22T14:20:28.432Z,22.01
2022-09-22T14:23:15.855Z,21.17
2022-09-22T14:26:18.147Z,20.92
2022-09-22T14:29:27.319Z,20.56
2022-09-22T14:32:24.822Z,21.23
2022-09-22T14:35:31.965Z,21.16
2022-09-22T14:38:22.076Z,20.43
2022-09-22T14:41:23.614Z,20.54
2022-09-22T14:44:28.896Z,21.12
2022-09-22T14:47:17.783Z,21.32
2022-09-22T14:50:07.330Z,21.59
2022-09-22T14:52:54.889Z,21.75
2022-09-22T14:55:47.764Z,20.84
2022-09-22T14:58:38.389Z,21.52
2022-09-22T15:01:48.855Z,21.82
2022-09-22T15:04:36.955Z,21.80
2022-09-22T15:07:25.873Z,22.40
2022-09-22T15:10:22.319Z,22.68
2022-09-22T15:13:28.139Z,22.63
2022-09-22T15:16:33.479Z,21.82
2022-09-22T15:19:22.983Z,17.70
2022-09-22T15:22:13.615Z,15.45
2022-09-22T15:24:59.920Z,14.11
2022-09-22T15:27:45.833Z,14.02
2022-09-22T15:30:32.813Z,14.88
2022-09-22T15:33:19.276Z,15.94
2022-09-22T15:36:15.892Z,13.67
2022-09-22T15:39:08.733Z,13.43
2022-09-22T15:41:57.079Z,14.58
2022-09-22T15:44:44.236Z,15.15
2022-09-22T15:47:30.845Z,15.79
2022-09-22T15:50:17.741Z,16.02
2022-09-22T15:53:04.124Z,16.47
2022-09-22T15:55:50.599Z,16.23
2022-09-22T15:58:39.155Z,15.90
2022-09-22T16:01:26.046Z,16.40
2022-09-22T16:04:12.943Z,16.42
2022-09-22T16:07:02.304Z,16.75
2022-09-22T16:09:48.928Z,16.73
2022-09-22T16:12:34.734Z,17.31
2022-09-22T16:15:20.669Z,17.87
2022-09-22T16:18:08.504Z,17.77
2022-09-22T16:21:02.497Z,18.45
2022-09-22T16:23:48.479Z,18.67
2022-09-22T16:26:35.341Z,18.90
2022-09-22T16:29:21.210Z,18.92
2022-09-22T16:32:07.587Z,18.76
2022-09-22T16:34:53.542Z,18.50
2022-09-22T16:37:39.565Z,17.69
2022-09-22T16:40:25.832Z,17.70
2022-09-22T16:43:13.179Z,16.81
2022-09-22T16:46:17.945Z,16.82
2022-09-22T16:49:09.881Z,16.62
2022-09-22T16:51:56.018Z,16.00
2022-09-22T16:54:42.396Z,16.54
2022-09-22T16:57:29.159Z,16.27
2022-09-22T17:00:15.961Z,16.37
2022-09-22T17:03:01.753Z,16.22
2022-09-22T17:05:48.475Z,15.96
2022-09-22T17:08:35.439Z,15.56
2022-09-22T17:11:24.399Z,15.26
2022-09-22T17:14:12.545Z,15.01
2022-09-22T17:17:06.172Z,14.81
2022-09-22T17:19:52.273Z,14.97
2022-09-22T17:22:38.915Z,15.15
2022-09-22T17:25:27.958Z,14.11
2022-09-22T17:28:14.063Z,14.30
2022-09-22T17:31:01.285Z,13.80
2022-09-22T17:33:51.945Z,13.96
2022-09-22T17:36:38.582Z,14.27
2022-09-22T17:39:25.772Z,14.41
2022-09-22T17:42:14.676Z,14.21
2022-09-22T17:45:00.879Z,13.95
2022-09-22T17:48:05.393Z,13.78
2022-09-22T17:51:10.089Z,13.53
2022-09-22T17:54:25.592Z,13.92
2022-09-22T17:57:19.029Z,13.69
2022-09-22T18:00:06.528Z,13.41
2022-09-22T18:02:54.281Z,12.90
2022-09-22T18:05:41.106Z,13.41
2022-09-22T18:08:27.341Z,13.30
2022-09-22T18:11:13.931Z,13.09
2022-09-22T18:14:00.975Z,12.78
2022-09-22T18:16:48.027Z,12.90
2022-09-22T18:19:37.235Z,12.81
2022-09-22T18:22:24.775Z,12.69
2022-09-22T18:25:11.218Z,12.02
2022-09-22T18:27:58.113Z,12.22
2022-09-22T18:30:46.509Z,11.35
2022-09-22T18:33:32.373Z,10.90
2022-09-22T18:36:18.877Z,10.85
2022-09-22T18:39:05.415Z,10.43
2022-09-22T18:41:54.939Z,10.85
2022-09-22T18:44:41.520Z,11.05
2022-09-22T18:47:27.742Z,11.23
2022-09-22T18:50:13.574Z,10.74
2022-09-22T18:53:00.249Z,10.91
2022-09-22T18:55:47.952Z,11.69
2022-09-22T18:58:34.236Z,11.44
2022-09-22T19:01:20.437Z,10.99
2022-09-22T19:04:07.574Z,11.19
2022-09-22T19:07:12.714Z,11.33
2022-09-22T19:09:59.037Z,11.80
2022-09-22T19:12:44.986Z,12.14
2022-09-22T19:15:31.567Z,12.19
2022-09-22T19:18:22.431Z,12.10
2022-09-22T19:21:14.362Z,12.08
2022-09-22T19:24:00.295Z,12.08
2022-09-22T19:26:48.205Z,12.35
2022-09-22T19:29:34.478Z,12.27
2022-09-22T19:32:20.634Z,12.04
2022-09-22T19:35:06.942Z,12.07
2022-09-22T19:37:53.290Z,12.04
2022-09-22T19:40:39.274Z,11.80
2022-09-22T19:43:26.273Z,12.08
2022-09-22T19:46:12.017Z,12.08
2022-09-22T19:48:58.766Z,12.10
2022-09-22T19:51:45.579Z,11.88
2022-09-22T19:54:32.116Z,11.78
2022-09-22T19:57:18.005Z,11.66
2022-09-22T20:00:04.812Z,11.39
2022-09-22T20:03:00.885Z,11.45
2022-09-22T20:05:48.825Z,11.66
2022-09-22T20:08:36.221Z,11.65
2022-09-22T20:11:26.499Z,11.68
2022-09-22T20:14:23.778Z,11.54
2022-09-22T20:17:10.614Z,11.47
2022-09-22T20:19:57.189Z,11.45
2022-09-22T20:22:44.885Z,11.38
2022-09-22T20:25:32.247Z,11.23
2022-09-22T20:28:18.768Z,11.41
2022-09-22T20:31:09.715Z,11.44
2022-09-22T20:33:56.182Z,11.32
2022-09-22T20:36:43.352Z,11.47
2022-09-22T20:39:29.741Z,11.33
2022-09-22T20:42:16.129Z,11.25
2022-09-22T20:45:02.560Z,11.12
2022-09-22T20:47:50.006Z,10.79
2022-09-22T20:50:36.790Z,10.73
2022-09-22T20:53:23.055Z,10.75
2022-09-22T20:56:11.141Z,10.73
2022-09-22T20:58:57.107Z,10.71
2022-09-22T21:01:43.429Z,10.73
2022-09-22T21:04:30.139Z,10.84
2022-09-22T21:07:16.774Z,11.16
2022-09-22T21:10:21.757Z,11.35
2022-09-22T21:13:08.608Z,11.13
2022-09-22T21:16:04.861Z,10.71
2022-09-22T21:18:51.868Z,10.53
2022-09-22T21:21:37.958Z,10.51
2022-09-22T21:24:24.430Z,10.11
2022-09-22T21:27:10.870Z,10.27
2022-09-22T21:29:57.246Z,10.44
2022-09-22T21:32:43.526Z,10.42
2022-09-22T21:35:30.000Z,10.01
2022-09-22T21:38:16.963Z,10.27
2022-09-22T21:41:05.549Z,10.66
2022-09-22T21:43:51.746Z,10.75
2022-09-22T21:46:40.850Z,10.60
2022-09-22T21:49:27.065Z,10.79
2022-09-22T21:52:13.387Z,10.27
2022-09-22T21:54:59.268Z,10.59
2022-09-22T21:57:45.436Z,9.85
2022-09-22T22:00:50.746Z,9.88
2022-09-22T22:03:42.107Z,10.12
2022-09-22T22:06:34.821Z,9.22
2022-09-22T22:09:23.093Z,9.45
2022-09-22T22:12:09.330Z,10.04
2022-09-22T22:14:57.066Z,10.08
2022-09-22T22:17:43.273Z,10.05
2022-09-22T22:20:31.079Z,10.06
2022-09-22T22:23:17.065Z,10.39
2022-09-22T22:26:07.923Z,10.18
2022-09-22T22:28:53.990Z,10.00
2022-09-22T22:31:41.824Z,9.78
2022-09-22T22:34:27.796Z,7.84
2022-09-22T22:37:14.162Z,7.93
2022-09-22T22:40:01.339Z,9.29
2022-09-22T22:42:49.179Z,9.79
2022-09-22T22:45:35.184Z,9.83
2022-09-22T22:48:21.837Z,9.82
2022-09-22T22:51:11.552Z,9.81
2022-09-22T22:53:57.726Z,9.74
2022-09-22T22:56:47.791Z,9.40
2022-09-22T22:59:35.129Z,9.21
2022-09-22T23:02:22.040Z,9.32
2022-09-22T23:05:08.782Z,9.69
2022-09-22T23:07:55.189Z,9.37
2022-09-22T23:10:41.692Z,9.16
2022-09-22T23:13:29.833Z,8.96
2022-09-22T23:16:18.444Z,8.80
2022-09-22T23:19:07.749Z,9.52
2022-09-22T23:21:55.409Z,9.56
2022-09-22T23:24:41.393Z,8.61
2022-09-22T23:27:28.400Z,8.13
2022-09-22T23:30:16.038Z,8.63
2022-09-22T23:33:02.051Z,9.23
2022-09-22T23:35:56.215Z,9.17
2022-09-22T23:38:42.635Z,9.15
2022-09-22T23:41:28.356Z,9.32
2022-09-22T23:44:14.739Z,9.09
2022-09-22T23:47:01.004Z,9.46
2022-09-22T23:49:47.605Z,9.49
2022-09-22T23:52:33.752Z,9.42
2022-09-22T23:55:20.475Z,9.52
2022-09-22T23:58:06.871Z,9.12
